Time;durP1;ratioP1;P1;durP2;ratioP2;P2;SDS_P1;SDS_P2;PMS_P1;PMS_P2;Temp;Humidity;BMP_temperature;BMP_pressure;BME280_temperature;BME280_humidity;BME280_pressure;Samples;Min_cycle;Max_cycle;Signal;HPM_P1;HPM_P2
2022/03/07 00:01:16;;;;;;;16.90;11.20;;;;;;;-1.21;77.84;102719.00;5020648;28;20021;-70
2022/03/07 00:03:42;;;;;;;15.95;11.65;;;;;;;-1.19;77.92;102714.34;5023375;28;20021;-71
2022/03/07 00:06:07;;;;;;;16.27;11.98;;;;;;;-1.31;77.98;102715.22;5024626;28;20156;-71
2022/03/07 00:08:33;;;;;;;15.80;12.05;;;;;;;-1.36;78.31;102712.00;5023841;28;20029;-71
2022/03/07 00:10:59;;;;;;;17.35;12.88;;;;;;;-1.44;78.81;102709.81;5024321;28;20059;-71
2022/03/07 00:13:24;;;;;;;14.13;12.10;;;;;;;-1.54;78.89;102708.72;5023022;28;20049;-71
2022/03/07 00:15:49;;;;;;;15.23;11.95;;;;;;;-1.52;79.24;102708.63;5023422;28;20037;-70
2022/03/07 00:18:15;;;;;;;15.85;12.00;;;;;;;-1.39;79.21;102715.75;5023818;28;20116;-71
2022/03/07 00:20:41;;;;;;;15.10;12.15;;;;;;;-1.44;79.32;102711.66;5018052;28;20079;-71
2022/03/07 00:23:06;;;;;;;17.25;11.90;;;;;;;-1.38;79.07;102717.47;5019970;28;20034;-71
2022/03/07 00:25:31;;;;;;;15.60;12.48;;;;;;;-1.33;79.02;102711.75;5023470;28;20083;-71
2022/03/07 00:27:57;;;;;;;15.57;13.50;;;;;;;-1.45;79.41;102708.09;5023646;28;20037;-71
2022/03/07 00:30:22;;;;;;;15.45;12.45;;;;;;;-1.48;79.60;102705.59;5023938;28;20033;-72
2022/03/07 00:32:47;;;;;;;15.77;12.23;;;;;;;-1.48;79.62;102716.38;5023524;28;20260;-72
2022/03/07 00:35:14;;;;;;;15.65;12.52;;;;;;;-1.58;79.94;102724.22;5023653;28;20031;-71
2022/03/07 00:37:40;;;;;;;16.73;12.82;;;;;;;-1.65;79.90;102720.25;5023300;28;20620;-72
2022/03/07 00:40:08;;;;;;;17.90;13.20;;;;;;;-1.72;79.87;102726.19;5024045;28;20029;-71
2022/03/07 00:42:33;;;;;;;;;;;;;;;-1.72;78.36;102729.72;5023312;28;20391;-71
2022/03/07 00:44:59;;;;;;;15.68;12.85;;;;;;;-1.84;80.25;102727.84;5021592;28;19920;-71
2022/03/07 00:47:25;;;;;;;15.65;12.77;;;;;;;-1.88;80.26;102726.31;5022732;28;20061;-71
2022/03/07 00:49:50;;;;;;;16.88;12.48;;;;;;;-1.92;80.48;102727.53;5023244;28;20056;-71
2022/03/07 00:52:16;;;;;;;18.25;13.43;;;;;;;-1.97;80.92;102732.34;5022589;28;20049;-71
2022/03/07 00:54:41;;;;;;;16.48;13.70;;;;;;;-2.01;81.18;102725.44;5023903;28;20063;-72
2022/03/07 00:57:07;;;;;;;17.60;13.73;;;;;;;-2.06;81.35;102728.44;5022687;28;20109;-72
2022/03/07 00:59:33;;;;;;;16.92;12.93;;;;;;;-2.10;81.57;102730.47;5023457;28;20033;-71
2022/03/07 01:01:58;;;;;;;20.23;13.40;;;;;;;-2.13;81.60;102730.69;5022841;28;20044;-71
2022/03/07 01:04:23;;;;;;;16.95;13.70;;;;;;;-2.12;81.67;102728.84;5023031;28;20550;-71
2022/03/07 01:06:48;;;;;;;18.80;13.35;;;;;;;-2.16;81.71;102730.00;5022980;28;20025;-71
2022/03/07 01:09:14;;;;;;;17.05;13.27;;;;;;;-2.20;81.87;102732.03;5021427;28;20053;-71
2022/03/07 01:11:39;;;;;;;18.23;14.20;;;;;;;-2.22;81.77;102735.81;5022236;28;20068;-71
2022/03/07 01:14:04;;;;;;;17.33;13.45;;;;;;;-2.24;81.86;102726.97;5023113;28;20076;-71
2022/03/07 01:16:29;;;;;;;16.65;13.48;;;;;;;-2.25;81.84;102731.47;5022321;28;20507;-71
2022/03/07 01:18:55;;;;;;;17.60;13.13;;;;;;;-2.27;81.91;102737.94;5023605;28;20053;-71
2022/03/07 01:21:20;;;;;;;19.02;13.35;;;;;;;-2.32;82.26;102732.84;5022040;28;20041;-71
2022/03/07 01:23:45;;;;;;;18.50;14.10;;;;;;;-2.32;82.27;102730.16;5022833;28;20087;-71
2022/03/07 01:26:11;;;;;;;20.42;14.43;;;;;;;-2.37;81.95;102732.28;5022133;28;20040;-71
2022/03/07 01:28:36;;;;;;;18.13;13.82;;;;;;;-2.37;82.19;102732.28;5023343;28;20029;-71
2022/03/07 01:31:01;;;;;;;16.67;13.57;;;;;;;-2.39;82.53;102726.13;5022605;28;20029;-72
2022/03/07 01:33:27;;;;;;;19.38;14.18;;;;;;;-2.40;82.39;102727.97;5022588;28;20035;-71
2022/03/07 01:35:52;;;;;;;19.75;13.80;;;;;;;-2.45;82.31;102730.09;5022707;28;20045;-71
2022/03/07 01:38:17;;;;;;;17.58;14.10;;;;;;;-2.45;82.63;102723.84;5022498;28;20033;-70
2022/03/07 01:40:44;;;;;;;20.70;14.07;;;;;;;-2.47;82.51;102732.03;5022676;28;20361;-71
2022/03/07 01:43:09;;;;;;;20.38;14.93;;;;;;;-2.46;83.00;102731.06;5022244;28;20025;-65
2022/03/07 01:45:34;;;;;;;20.75;15.20;;;;;;;-2.44;83.01;102728.25;5022770;28;20025;-71
2022/03/07 01:48:01;;;;;;;20.33;14.90;;;;;;;-2.47;82.79;102723.97;5022879;28;20037;-71
2022/03/07 01:50:27;;;;;;;19.08;15.10;;;;;;;-2.49;82.98;102727.69;5021410;28;20038;-71
2022/03/07 01:52:53;;;;;;;17.63;14.43;;;;;;;-2.51;83.06;102725.13;5022793;28;20028;-71
2022/03/07 01:55:19;;;;;;;17.80;13.95;;;;;;;-2.51;83.27;102735.00;5022987;28;20033;-71
2022/03/07 01:57:46;;;;;;;18.10;14.02;;;;;;;-2.56;83.12;102721.00;5021450;28;20053;-71
2022/03/07 02:00:29;;;;;;;18.48;13.93;;;;;;;-2.56;83.60;102732.63;5021244;28;20029;-71
2022/03/07 02:02:55;;;;;;;18.55;14.93;;;;;;;-2.58;83.69;102728.31;5021548;28;20033;-71
2022/03/07 02:05:21;;;;;;;18.63;14.38;;;;;;;-2.61;83.64;102723.97;5022266;28;20566;-71
2022/03/07 02:07:46;;;;;;;21.52;14.45;;;;;;;-2.61;84.05;102718.59;5022136;28;20026;-71
2022/03/07 02:10:12;;;;;;;19.60;14.68;;;;;;;-2.66;83.87;102718.91;5022377;28;20025;-71
2022/03/07 02:12:38;;;;;;;20.00;14.85;;;;;;;-2.65;83.86;102717.94;5021852;28;20133;-71
2022/03/07 02:15:05;;;;;;;18.45;15.20;;;;;;;-2.66;84.02;102715.34;5022890;28;20036;-71
2022/03/07 02:17:30;;;;;;;18.35;14.90;;;;;;;-2.67;83.95;102713.63;5007053;28;20092;-71
2022/03/07 02:19:56;;;;;;;20.52;15.63;;;;;;;-2.67;84.31;102711.78;5011197;28;20030;-71
2022/03/07 02:22:22;;;;;;;19.65;15.55;;;;;;;-2.68;84.34;102711.91;5026361;28;20519;-71
2022/03/07 02:24:47;;;;;;;19.25;14.55;;;;;;;-2.69;84.06;102707.47;5026779;28;20025;-72
2022/03/07 02:27:15;;;;;;;20.08;16.20;;;;;;;-2.71;84.25;102707.56;5024597;28;20028;-71
2022/03/07 02:29:41;;;;;;;20.75;15.48;;;;;;;-2.66;84.76;102701.91;5026698;28;20380;-71
2022/03/07 02:32:07;;;;;;;19.40;14.82;;;;;;;-2.65;84.67;102712.56;5026068;28;20025;-71
2022/03/07 02:34:32;;;;;;;21.05;16.00;;;;;;;-2.61;84.60;102702.47;5025576;28;20095;-70
2022/03/07 02:36:58;;;;;;;21.70;15.82;;;;;;;-2.59;84.98;102700.53;5025962;28;20053;-71
2022/03/07 02:39:24;;;;;;;24.52;16.17;;;;;;;-2.58;84.90;102704.09;5025264;28;20724;-71
2022/03/07 02:41:49;;;;;;;20.33;15.15;;;;;;;-2.60;84.61;102701.50;5025453;28;20045;-71
2022/03/07 02:44:14;;;;;;;15.93;11.50;;;;;;;-2.57;84.79;102700.44;5025392;28;20037;-71
2022/03/07 02:46:40;;;;;;;20.20;15.55;;;;;;;-2.55;84.90;102706.59;5025719;28;20033;-72
2022/03/07 02:49:06;;;;;;;20.75;15.75;;;;;;;-2.51;84.52;102708.13;5026891;28;20034;-72
2022/03/07 02:51:32;;;;;;;18.65;15.02;;;;;;;-2.53;84.70;102701.97;5024751;28;20029;-72
2022/03/07 02:53:58;;;;;;;21.02;16.23;;;;;;;-2.53;84.72;102702.84;5026300;28;20025;-71
2022/03/07 02:56:23;;;;;;;20.33;15.35;;;;;;;-2.53;84.88;102699.28;5025258;28;20018;-72
2022/03/07 02:58:48;;;;;;;20.90;15.45;;;;;;;-2.49;84.46;102711.56;5025729;28;20024;-71
2022/03/07 03:01:14;;;;;;;19.60;16.10;;;;;;;-2.51;84.51;102702.72;5023480;28;20120;-71
2022/03/07 03:03:39;;;;;;;22.15;15.73;;;;;;;-2.53;84.62;102702.84;5025720;28;20056;-72
2022/03/07 03:06:04;;;;;;;21.52;15.45;;;;;;;-2.55;84.48;102702.06;5025803;28;20029;-71
2022/03/07 03:08:29;;;;;;;23.20;16.10;;;;;;;-2.55;84.58;102703.91;5024902;28;20033;-71
2022/03/07 03:10:57;;;;;;;24.23;16.13;;;;;;;-2.57;84.52;102695.94;5025093;28;20092;-71
2022/03/07 03:13:23;;;;;;;21.42;16.42;;;;;;;-2.57;84.85;102700.44;5025580;28;20034;-71
2022/03/07 03:15:49;;;;;;;21.00;15.30;;;;;;;-2.53;84.99;102697.47;5040426;28;20030;-71
2022/03/07 03:18:15;;;;;;;23.65;17.23;;;;;;;-2.52;84.86;102693.81;5025273;28;20365;-71
2022/03/07 03:20:40;;;;;;;19.77;16.13;;;;;;;-2.51;85.10;102698.22;5025317;28;20480;-72
2022/03/07 03:23:06;;;;;;;24.77;17.27;;;;;;;-2.52;84.96;102703.69;5025930;28;20036;-71
2022/03/07 03:25:31;;;;;;;21.20;16.00;;;;;;;-2.47;84.70;102698.88;5025122;28;20545;-72
2022/03/07 03:27:57;;;;;;;21.88;17.33;;;;;;;-2.23;83.95;102696.38;5024615;28;20424;-71
2022/03/07 03:30:22;;;;;;;25.17;16.83;;;;;;;-2.28;83.61;102699.41;5024340;28;20498;-71
2022/03/07 03:32:48;;;;;;;20.70;16.42;;;;;;;-2.22;83.28;102699.00;5025066;28;20395;-72
2022/03/07 03:35:13;;;;;;;20.48;16.25;;;;;;;-2.16;83.67;102698.56;5024350;28;20033;-72
2022/03/07 03:37:38;;;;;;;17.88;13.38;;;;;;;-2.14;83.37;102701.16;5025129;28;20045;-71
2022/03/07 03:40:07;;;;;;;25.70;16.92;;;;;;;-2.12;82.63;102704.63;5025029;28;20040;-72
2022/03/07 03:42:33;;;;;;;19.98;14.55;;;;;;;-1.86;81.85;102695.66;5023263;28;20032;-71
2022/03/07 03:44:58;;;;;;;18.00;10.95;;;;;;;-1.81;81.75;102700.72;5024997;28;20396;-72
2022/03/07 03:47:23;;;;;;;19.88;13.98;;;;;;;-1.82;82.01;102709.78;5013640;28;20030;-72
2022/03/07 03:49:49;;;;;;;21.52;15.13;;;;;;;-1.59;81.13;102702.78;5024170;28;20026;-71
2022/03/07 03:52:14;;;;;;;22.02;14.07;;;;;;;-1.65;81.09;102704.09;5024794;28;20025;-72
2022/03/07 03:54:39;;;;;;;18.77;10.52;;;;;;;-1.71;81.47;102704.50;5024664;28;20049;-71
2022/03/07 03:57:05;;;;;;;19.48;12.48;;;;;;;-1.54;80.91;102699.78;5024609;28;20021;-71
2022/03/07 03:59:31;;;;;;;14.38;9.70;;;;;;;-1.56;80.35;102705.28;5023656;28;20076;-71
2022/03/07 04:01:57;;;;;;;18.20;11.30;;;;;;;-1.45;80.56;102704.53;5024074;28;20805;-72
2022/03/07 04:04:22;;;;;;;16.95;11.48;;;;;;;-1.54;81.06;102699.78;5024055;28;20025;-71
2022/03/07 04:06:48;;;;;;;18.60;10.82;;;;;;;-1.64;81.52;102704.94;5022663;28;20025;-71
2022/03/07 04:09:18;;;;;;;26.48;17.73;;;;;;;-1.81;82.08;102707.94;5024514;28;20036;-71
2022/03/07 04:11:43;;;;;;;25.20;18.13;;;;;;;-2.09;83.17;102707.97;5023343;28;20029;-71
2022/03/07 04:14:09;;;;;;;23.92;17.23;;;;;;;-2.22;83.85;102707.06;5024035;28;20086;-72
2022/03/07 04:16:38;;;;;;;28.98;17.77;;;;;;;-2.28;84.13;102715.56;5023685;28;20030;-71
2022/03/07 04:19:05;;;;;;;25.65;17.13;;;;;;;-2.36;84.42;102709.81;5024742;28;20025;-71
2022/03/07 04:21:31;;;;;;;23.80;17.33;;;;;;;-2.34;84.55;102710.56;5023694;28;20083;-71
2022/03/07 04:23:56;;;;;;;23.33;16.90;;;;;;;-2.31;84.36;102704.13;5023429;28;20033;-70
2022/03/07 04:26:22;;;;;;;27.35;18.38;;;;;;;-2.43;84.78;102711.19;5023446;28;20064;-71
2022/03/07 04:28:47;;;;;;;21.50;13.60;;;;;;;-2.24;84.17;102706.28;5024178;28;20098;-71
2022/03/07 04:31:12;;;;;;;24.42;14.00;;;;;;;-2.12;83.58;102708.19;5022464;28;20112;-70
2022/03/07 04:33:38;;;;;;;24.10;16.38;;;;;;;-2.23;84.00;102713.41;5024774;28;20036;-70
2022/03/07 04:36:03;;;;;;;24.67;17.27;;;;;;;-2.23;83.56;102710.72;5023547;28;20069;-70
2022/03/07 04:38:29;;;;;;;21.85;15.20;;;;;;;-2.14;83.32;102702.03;5024014;28;20095;-70
2022/03/07 04:40:54;;;;;;;22.80;16.55;;;;;;;-2.37;84.34;102708.09;5022106;28;20125;-70
2022/03/07 04:43:19;;;;;;;21.17;15.63;;;;;;;-2.41;84.59;102709.25;5023495;28;20079;-70
2022/03/07 04:45:45;;;;;;;20.33;14.80;;;;;;;-2.32;84.20;102714.03;5023417;28;20021;-71
2022/03/07 04:48:10;;;;;;;22.25;15.95;;;;;;;-2.30;84.28;102708.53;5022780;28;20112;-71
2022/03/07 04:50:35;;;;;;;21.83;15.82;;;;;;;-2.36;84.36;102707.09;5023753;28;20115;-70
2022/03/07 04:53:01;;;;;;;24.95;16.85;;;;;;;-2.45;84.47;102707.72;5023716;28;20017;-70
2022/03/07 04:55:26;;;;;;;23.73;15.40;;;;;;;-2.29;84.32;102703.03;5022944;28;20025;-70
2022/03/07 04:57:52;;;;;;;24.02;17.83;;;;;;;-2.54;84.82;102714.53;5022817;28;20112;-70
2022/03/07 05:00:18;;;;;;;15.05;11.63;;;;;;;-2.14;83.16;102709.22;5022857;28;20492;-70
2022/03/07 05:02:44;;;;;;;24.45;18.02;;;;;;;-2.39;84.50;102713.53;5023320;28;20041;-71
2022/03/07 05:05:09;;;;;;;24.88;17.30;;;;;;;-2.56;85.14;102710.25;5022684;28;20060;-65
2022/03/07 05:07:34;;;;;;;24.50;17.65;;;;;;;-2.48;85.04;102707.94;5023601;28;20057;-70
2022/03/07 05:10:00;;;;;;;24.10;16.17;;;;;;;-2.49;84.85;102700.78;5023382;28;20043;-70
2022/03/07 05:12:25;;;;;;;28.20;18.85;;;;;;;-2.63;85.25;102701.72;5022298;28;20029;-70
2022/03/07 05:14:51;;;;;;;26.80;18.13;;;;;;;-2.70;85.61;102703.91;5023471;28;20033;-70
2022/03/07 05:17:16;;;;;;;24.25;15.15;;;;;;;-2.70;85.71;102703.06;5019306;28;20589;-71
2022/03/07 05:19:41;;;;;;;24.65;15.23;;;;;;;-2.51;85.24;102700.91;5023197;28;20073;-70
2022/03/07 05:22:08;;;;;;;27.92;18.80;;;;;;;-2.43;84.62;102697.72;5022344;28;20025;-71
2022/03/07 05:24:34;;;;;;;23.47;18.30;;;;;;;-2.49;84.77;102703.47;5023134;28;20030;-71
2022/03/07 05:27:00;;;;;;;26.55;19.05;;;;;;;-2.70;85.73;102703.06;5022381;28;20040;-72
2022/03/07 05:29:25;;;;;;;23.73;17.98;;;;;;;-2.76;85.90;102707.00;5022461;28;20392;-72
2022/03/07 05:31:50;;;;;;;25.42;18.25;;;;;;;-2.58;85.52;102704.97;5022520;28;20025;-72
2022/03/07 05:34:16;;;;;;;20.52;14.77;;;;;;;-2.33;84.46;102704.22;5023429;28;20468;-71
2022/03/07 05:36:41;;;;;;;27.38;18.10;;;;;;;-2.34;83.86;102707.84;5022487;28;20045;-71
2022/03/07 05:39:07;;;;;;;26.38;17.33;;;;;;;-2.46;84.59;102711.38;5023043;28;20057;-72
2022/03/07 05:41:32;;;;;;;29.92;18.63;;;;;;;-2.56;84.94;102702.16;5022334;28;20555;-71
2022/03/07 05:43:57;;;;;;;29.33;18.35;;;;;;;-2.65;85.42;102699.09;5022272;28;20259;-72
2022/03/07 05:46:22;;;;;;;26.88;18.08;;;;;;;-2.63;85.67;102693.66;5022016;28;20534;-71
2022/03/07 05:48:48;;;;;;;26.83;18.00;;;;;;;-2.49;85.26;102704.34;5019871;28;20056;-71
2022/03/07 05:51:15;;;;;;;28.13;17.90;;;;;;;-2.50;84.93;102702.63;5021537;28;20021;-72
2022/03/07 05:53:40;;;;;;;26.40;17.90;;;;;;;-2.44;84.65;102710.28;5024036;28;20099;-72
2022/03/07 05:56:05;;;;;;;23.58;14.52;;;;;;;-2.26;84.19;102707.38;5040103;28;20528;-72
2022/03/07 05:58:31;;;;;;;27.30;18.73;;;;;;;-2.62;85.16;102709.69;5025961;28;20029;-72
2022/03/07 06:00:56;;;;;;;26.17;17.50;;;;;;;-2.54;85.46;102714.53;5041342;28;20030;-72
2022/03/07 06:03:21;;;;;;;28.35;17.58;;;;;;;-2.29;83.95;102715.63;5025542;28;20025;-72
2022/03/07 06:05:47;;;;;;;26.80;17.90;;;;;;;-2.48;85.13;102724.06;5024832;28;20110;-72
2022/03/07 06:08:12;;;;;;;24.85;16.80;;;;;;;-2.22;83.79;102725.91;5023862;28;20038;-72
2022/03/07 06:10:37;;;;;;;26.65;18.55;;;;;;;-2.28;84.11;102736.19;5025502;28;20059;-72
2022/03/07 06:13:03;;;;;;;27.08;18.60;;;;;;;-2.29;84.12;102734.47;5025746;28;20456;-72
2022/03/07 06:15:28;;;;;;;27.20;19.20;;;;;;;-2.44;84.62;102737.19;5025032;28;20384;-72
2022/03/07 06:17:56;;;;;;;24.80;15.68;;;;;;;-2.22;83.68;102741.19;5025379;28;20035;-72
2022/03/07 06:20:23;;;;;;;28.95;18.60;;;;;;;-2.26;83.55;102737.84;5025715;28;20375;-72
2022/03/07 06:22:48;;;;;;;24.60;15.77;;;;;;;-2.26;83.37;102743.22;5025137;28;20025;-72
2022/03/07 06:25:14;;;;;;;31.45;19.35;;;;;;;-2.35;83.86;102743.81;5024617;28;20039;-71
2022/03/07 06:27:39;;;;;;;30.17;20.38;;;;;;;-2.53;84.78;102748.56;5025253;28;20108;-72
2022/03/07 06:30:05;;;;;;;24.52;16.90;;;;;;;-2.32;84.37;102743.63;5025133;28;20033;-72
2022/03/07 06:32:30;;;;;;;29.90;18.13;;;;;;;-2.45;84.89;102746.22;5024461;28;20032;-72
2022/03/07 06:34:56;;;;;;;29.83;20.45;;;;;;;-2.32;83.78;102754.38;5025602;28;20025;-72
2022/03/07 06:37:21;;;;;;;27.33;18.08;;;;;;;-2.37;84.62;102748.44;5024026;28;20095;-72
2022/03/07 06:39:47;;;;;;;27.48;19.00;;;;;;;-2.27;83.76;102754.09;5025615;28;20345;-71
2022/03/07 06:42:12;;;;;;;26.42;17.75;;;;;;;-2.47;84.91;102764.31;5023768;28;20657;-71
2022/03/07 06:44:40;;;;;;;31.48;18.83;;;;;;;-2.24;83.88;102765.50;5023896;28;20049;-71
2022/03/07 06:47:07;;;;;;;24.77;17.33;;;;;;;-2.15;83.98;102761.34;5024845;28;20118;-71
2022/03/07 06:49:32;;;;;;;31.92;21.27;;;;;;;-2.38;84.60;102757.50;5024762;28;20513;-71
2022/03/07 06:51:58;;;;;;;25.10;15.57;;;;;;;-2.03;83.22;102762.34;5024429;28;20029;-72
2022/03/07 06:54:23;;;;;;;30.20;20.30;;;;;;;-1.99;83.59;102759.38;5024404;28;20026;-73
2022/03/07 06:56:48;;;;;;;30.08;22.35;;;;;;;-2.14;84.66;102763.94;5023734;28;20033;-72
2022/03/07 06:59:13;;;;;;;33.78;22.00;;;;;;;-1.99;83.95;102763.88;5024414;28;20567;-72
2022/03/07 07:01:39;;;;;;;32.45;20.45;;;;;;;-1.91;83.46;102757.03;5022616;28;20029;-71
2022/03/07 07:04:04;;;;;;;30.70;19.63;;;;;;;-1.83;83.21;102760.06;5024420;28;20614;-71
2022/03/07 07:06:29;;;;;;;30.13;19.90;;;;;;;-1.88;83.46;102756.81;5023997;28;20037;-71
2022/03/07 07:08:55;;;;;;;31.95;22.20;;;;;;;-1.96;83.61;102752.91;5024903;28;20071;-72
2022/03/07 07:11:20;;;;;;;30.33;20.17;;;;;;;-1.84;83.57;102755.63;5022800;28;20485;-72
2022/03/07 07:13:45;;;;;;;32.75;21.58;;;;;;;-1.85;84.00;102755.75;5024832;28;20045;-71
2022/03/07 07:16:11;;;;;;;30.52;20.27;;;;;;;-1.65;82.98;102757.09;5020620;28;20447;-71
2022/03/07 07:18:36;;;;;;;28.55;20.70;;;;;;;-1.53;82.67;102753.56;5022898;28;20048;-72
2022/03/07 07:21:01;;;;;;;31.17;21.48;;;;;;;-1.42;83.08;102755.50;5024332;28;20026;-72
2022/03/07 07:23:27;;;;;;;33.28;21.77;;;;;;;-1.20;82.11;102761.16;5024024;28;20679;-72
2022/03/07 07:25:54;;;;;;;28.23;17.88;;;;;;;-1.13;81.74;102748.97;5023882;28;20018;-72
2022/03/07 07:28:19;;;;;;;29.90;18.98;;;;;;;-0.98;81.83;102743.47;5023775;28;20096;-72
2022/03/07 07:30:46;;;;;;;32.53;21.85;;;;;;;-0.72;80.10;102749.69;5023450;28;20133;-73
2022/03/07 07:33:12;;;;;;;31.15;19.20;;;;;;;-0.52;80.13;102747.25;5024037;28;20416;-72
2022/03/07 07:35:37;;;;;;;30.20;20.52;;;;;;;-0.18;78.65;102754.75;5024381;28;20160;-72
2022/03/07 07:38:06;;;;;;;26.77;18.17;;;;;;;0.15;78.41;102754.94;5023744;28;20666;-72
2022/03/07 07:40:32;;;;;;;26.52;19.15;;;;;;;0.54;76.39;102744.72;5022820;28;20060;-71
2022/03/07 07:42:58;;;;;;;28.48;20.60;;;;;;;0.97;75.34;102757.63;5023571;28;20529;-72
2022/03/07 07:45:24;;;;;;;25.60;14.10;;;;;;;1.12;73.97;102742.88;5023969;28;20502;-72
2022/03/07 07:47:49;;;;;;;26.58;18.55;;;;;;;0.89;73.20;102755.50;5023305;28;20444;-73
2022/03/07 07:50:14;;;;;;;21.88;13.77;;;;;;;0.80;73.73;102758.91;5023938;28;20025;-73
2022/03/07 07:52:40;;;;;;;22.77;15.55;;;;;;;0.81;73.44;102757.94;5023222;28;20034;-73
2022/03/07 07:55:06;;;;;;;21.80;15.02;;;;;;;0.79;73.14;102762.63;5023224;28;20025;-74
2022/03/07 07:57:31;;;;;;;28.52;20.42;;;;;;;0.69;74.49;102769.72;5023541;28;20444;-75
2022/03/07 07:59:57;;;;;;;24.85;18.40;;;;;;;0.70;75.57;102777.69;5023288;28;20068;-75
2022/03/07 08:02:22;;;;;;;23.80;16.65;;;;;;;1.02;73.43;102766.22;5023011;28;20048;-75
2022/03/07 08:04:51;;;;;;;21.92;12.32;;;;;;;1.07;72.36;102765.88;5022826;28;20480;-75
2022/03/07 08:07:16;;;;;;;22.35;16.42;;;;;;;1.07;72.73;102765.88;5023051;28;20411;-75
2022/03/07 08:09:42;;;;;;;26.27;19.90;;;;;;;1.21;73.62;102760.19;5023365;28;20022;-76
2022/03/07 08:12:07;;;;;;;26.75;16.65;;;;;;;1.53;71.80;102761.19;5020209;28;20018;-67
2022/03/07 08:14:32;;;;;;;19.02;12.95;;;;;;;2.01;70.21;102760.84;5022227;28;20033;-69
2022/03/07 08:16:58;;;;;;;22.45;18.27;;;;;;;2.53;68.66;102758.28;5021416;28;20029;-68
2022/03/07 08:19:23;;;;;;;18.63;13.52;;;;;;;2.89;66.09;102759.69;5022262;28;20075;-68
2022/03/07 08:21:48;;;;;;;22.65;17.67;;;;;;;3.21;64.91;102758.72;5023020;28;20033;-69
2022/03/07 08:24:14;;;;;;;21.02;16.13;;;;;;;3.36;64.63;102755.50;5022151;28;20044;-69
2022/03/07 08:26:40;;;;;;;24.20;17.73;;;;;;;3.48;65.18;102752.69;5022378;28;20522;-68
2022/03/07 08:29:06;;;;;;;20.02;15.88;;;;;;;3.81;64.15;102746.94;5022812;28;20037;-69
2022/03/07 08:31:31;;;;;;;20.75;16.30;;;;;;;4.54;61.55;102747.38;5021942;28;20029;-70
2022/03/07 08:33:56;;;;;;;19.95;15.75;;;;;;;5.32;59.14;102736.28;5022513;28;20021;-69
2022/03/07 08:36:22;;;;;;;18.60;14.77;;;;;;;6.13;56.25;102731.84;5022400;28;20534;-70
2022/03/07 08:38:47;;;;;;;18.00;15.25;;;;;;;6.52;55.49;102741.56;5021512;28;20491;-69
2022/03/07 08:41:12;;;;;;;16.58;13.25;;;;;;;7.06;52.00;102745.06;5018169;28;20036;-70
2022/03/07 08:43:39;;;;;;;18.35;13.27;;;;;;;7.23;51.75;102741.41;5022533;28;20131;-69
2022/03/07 08:46:04;;;;;;;16.27;12.52;;;;;;;6.89;50.41;102744.06;5022569;28;20032;-71
2022/03/07 08:48:30;;;;;;;19.23;12.85;;;;;;;6.82;51.54;102743.88;5021885;28;20472;-70
2022/03/07 08:50:55;;;;;;;16.23;12.50;;;;;;;7.01;52.43;102751.00;5022178;28;20056;-70
2022/03/07 08:53:20;;;;;;;14.50;12.00;;;;;;;7.32;49.96;102750.50;5021735;28;20025;-70
2022/03/07 08:55:46;;;;;;;17.17;12.88;;;;;;;7.39;49.08;102746.94;5021405;28;20108;-70
2022/03/07 08:58:11;;;;;;;17.05;13.32;;;;;;;7.67;50.31;102752.22;5022009;28;20893;-70
2022/03/07 09:00:37;;;;;;;17.20;12.82;;;;;;;8.56;48.31;102743.34;5021139;28;20164;-70
2022/03/07 09:03:04;;;;;;;17.73;13.65;;;;;;;9.37;44.80;102736.88;5021692;28;20112;-70
2022/03/07 09:05:29;;;;;;;16.92;13.10;;;;;;;9.84;44.20;102739.59;5021020;28;20135;-70
2022/03/07 09:07:54;;;;;;;14.77;12.65;;;;;;;10.17;42.87;102741.28;5021769;28;20033;-69
2022/03/07 09:10:20;;;;;;;15.85;11.68;;;;;;;10.90;40.84;102733.34;5020412;28;20041;-69
2022/03/07 09:12:45;;;;;;;14.68;11.82;;;;;;;11.25;39.66;102739.16;5021218;28;20041;-69
2022/03/07 09:15:10;;;;;;;13.70;10.98;;;;;;;11.27;38.97;102745.34;5021966;28;20022;-68
2022/03/07 09:17:36;;;;;;;12.90;10.13;;;;;;;11.75;37.79;102740.25;5012800;28;20033;-67
2022/03/07 09:20:02;;;;;;;12.95;10.52;;;;;;;12.23;36.69;102735.16;5013544;28;20026;-68
2022/03/07 09:22:27;;;;;;;13.60;10.23;;;;;;;12.36;37.19;102735.28;5003517;28;20773;-68
2022/03/07 09:24:53;;;;;;;13.65;9.18;;;;;;;12.18;35.06;102735.75;5006459;28;20540;-68
2022/03/07 09:27:19;;;;;;;22.05;16.73;;;;;;;12.72;35.43;102746.25;5009666;28;20041;-68
2022/03/07 09:29:44;;;;;;;16.65;12.85;;;;;;;13.69;34.50;102723.34;5013288;28;20026;-68
2022/03/07 09:32:10;;;;;;;13.85;9.85;;;;;;;14.27;32.39;102731.19;5012252;28;20096;-68
2022/03/07 09:34:36;;;;;;;12.10;8.50;;;;;;;14.17;32.43;102734.34;5004967;28;20030;-68
2022/03/07 09:37:04;;;;;;;11.98;8.05;;;;;;;14.47;30.37;102725.69;5016400;28;20068;-68
2022/03/07 09:39:32;;;;;;;10.68;7.90;;;;;;;14.77;30.84;102723.41;5009989;28;20057;-68
2022/03/07 09:41:58;;;;;;;10.63;8.05;;;;;;;14.80;30.42;102734.06;5009653;28;20034;-67
2022/03/07 09:44:24;;;;;;;12.23;8.70;;;;;;;14.61;30.11;102729.38;5009220;28;20017;-68
2022/03/07 09:46:50;;;;;;;11.50;8.40;;;;;;;14.64;30.43;102724.25;5015733;28;20047;-68
2022/03/07 09:49:15;;;;;;;12.10;8.63;;;;;;;14.53;30.49;102724.88;5021797;28;20189;-67
2022/03/07 09:51:40;;;;;;;10.75;8.35;;;;;;;14.96;29.78;102718.94;5022058;28;20423;-67
2022/03/07 09:54:06;;;;;;;9.93;8.38;;;;;;;15.32;29.72;102715.69;5022553;28;20030;-67
2022/03/07 09:56:31;;;;;;;10.70;8.27;;;;;;;15.54;28.52;102711.53;5020317;28;20075;-68
2022/03/07 09:58:57;;;;;;;9.13;7.35;;;;;;;15.76;27.17;102712.16;5021641;28;20075;-67
2022/03/07 10:01:22;;;;;;;10.07;7.70;;;;;;;15.43;28.64;102712.22;5021294;28;20142;-67
2022/03/07 10:03:47;;;;;;;10.57;7.50;;;;;;;15.42;28.65;102702.22;5020342;28;20026;-67
2022/03/07 10:06:18;;;;;;;10.55;6.80;;;;;;;16.07;28.69;102707.72;5021426;28;20546;-67
2022/03/07 10:08:56;;;;;;;9.95;7.28;;;;;;;15.74;28.77;102708.72;5018076;28;20104;-67
2022/03/07 10:11:21;;;;;;;;;;;;;;;15.84;31.18;102705.50;5011246;28;20121;-68
2022/03/07 10:13:55;;;;;;;9.93;6.88;;;;;;;16.30;28.87;102701.59;5018668;28;20017;-67
2022/03/07 10:16:21;;;;;;;9.00;6.50;;;;;;;16.98;26.21;102706.41;5016879;28;20114;-67
2022/03/07 10:18:51;;;;;;;9.93;6.78;;;;;;;17.46;26.42;102700.97;5004203;28;20453;-67
2022/03/07 10:21:27;;;;;;;14.95;12.10;;;;;;;17.32;26.17;102707.75;5009952;28;20052;-67
2022/03/07 10:23:54;;;;;;;9.02;7.68;;;;;;;17.20;25.77;102701.28;5022637;28;20448;-67
2022/03/07 10:26:20;;;;;;;10.15;7.57;;;;;;;16.73;26.14;102703.66;5021118;28;20068;-67
2022/03/07 10:28:54;;;;;;;16.88;11.55;;;;;;;16.85;27.20;102697.13;5021850;28;20029;-67
2022/03/07 10:31:20;;;;;;;13.82;10.25;;;;;;;16.55;26.40;102696.94;5010404;28;20026;-67
2022/03/07 10:33:46;;;;;;;10.23;7.80;;;;;;;16.53;26.22;102701.88;5002775;28;20053;-66
2022/03/07 10:36:12;;;;;;;9.98;6.22;;;;;;;15.71;27.09;102681.50;5019576;28;20076;-66
2022/03/07 10:38:37;;;;;;;9.07;6.47;;;;;;;15.36;27.38;102675.41;5022196;28;20057;-66
2022/03/07 10:41:04;;;;;;;8.73;6.50;;;;;;;15.63;27.07;102675.31;5024132;28;20056;-66
2022/03/07 10:43:29;;;;;;;8.52;6.75;;;;;;;15.68;27.72;102679.16;5025474;28;20037;-66
2022/03/07 10:45:57;;;;;;;10.48;7.97;;;;;;;15.98;26.95;102665.56;5024893;28;20037;-66
2022/03/07 10:48:25;;;;;;;9.95;7.28;;;;;;;16.14;26.55;102666.09;5025463;28;20374;-66
2022/03/07 10:50:53;;;;;;;9.57;6.50;;;;;;;16.74;26.67;102659.03;5023701;28;20029;-66
2022/03/07 10:53:19;;;;;;;8.25;6.00;;;;;;;16.57;26.41;102658.75;5020994;28;20025;-66
2022/03/07 10:55:53;;;;;;;8.45;6.18;;;;;;;16.82;27.98;102660.66;5024386;28;20033;-66
2022/03/07 10:58:20;;;;;;;8.27;5.78;;;;;;;17.01;25.86;102647.66;5025229;28;20030;-66
2022/03/07 11:00:55;;;;;;;9.00;6.05;;;;;;;17.23;26.38;102648.88;5024598;28;20524;-66
2022/03/07 11:03:23;;;;;;;8.40;5.80;;;;;;;17.06;26.14;102639.50;5025035;28;20104;-66
2022/03/07 11:05:49;;;;;;;9.63;6.03;;;;;;;16.91;25.40;102642.63;5025723;28;20017;-66